Terminal Aerodrome Forecast
Issued by NWS Jackson, MS

Home | Current Version | Previous Version | Text Only | Print | Product List | Glossary On
Versions: 1 2 3 4 5 6 7 8 9 10 11 12 13 14
000
FTUS44 KJAN 281604 AAB
TAFJAN
TAF AMD
KJAN 281604Z 2816/2912 11012KT P6SM VCSH FEW035 SCT050 BKN100
     FM281700 18012G19KT P6SM BKN070
     FM282000 20010KT P6SM VCTS BKN050CB
     FM290500 17004KT P6SM BKN070
     FM290900 17004KT P6SM BKN025=

USA.gov is the U.S. government's official web portal to all federal, state and local government web resources and services.